Time;durP1;ratioP1;P1;durP2;ratioP2;P2;SDS_P1;SDS_P2;PMS_P1;PMS_P2;Temp;Humidity;BMP_temperature;BMP_pressure;BME280_temperature;BME280_humidity;BME280_pressure;Samples;Min_cycle;Max_cycle;Signal;HPM_P1;HPM_P2
2022/10/27 00:01:39;;;;;;;4.50;3.60;;;;;;;11.92;81.75;99696.28;5092124;28;40368;-81
2022/10/27 00:04:08;;;;;;;5.00;3.60;;;;;;;11.77;81.64;99680.25;5075815;28;40643;-80
2022/10/27 00:06:36;;;;;;;4.40;3.50;;;;;;;11.80;81.79;99696.03;5074830;28;42568;-80
2022/10/27 00:09:04;;;;;;;4.90;4.10;;;;;;;11.83;81.49;99702.97;5092484;28;41988;-79
2022/10/27 00:11:32;;;;;;;4.47;3.50;;;;;;;11.82;81.36;99710.06;5075508;28;39174;-80
2022/10/27 00:13:59;;;;;;;5.77;3.70;;;;;;;11.82;81.47;99709.22;5092426;28;41982;-79
2022/10/27 00:16:27;;;;;;;4.13;3.30;;;;;;;11.81;81.59;99712.81;5075243;28;42852;-81
2022/10/27 00:18:56;;;;;;;3.33;2.87;;;;;;;11.79;81.34;99714.69;5075035;28;44027;-80
2022/10/27 00:21:24;;;;;;;4.30;3.23;;;;;;;11.69;81.75;99698.38;5092433;28;39673;-81
2022/10/27 00:23:52;;;;;;;4.80;4.30;;;;;;;11.65;81.49;99698.59;5093185;28;41480;-79
2022/10/27 00:26:21;;;;;;;4.37;3.63;;;;;;;11.71;82.07;99717.72;5092073;28;44100;-80
2022/10/27 00:28:49;;;;;;;7.23;3.60;;;;;;;11.66;82.60;99714.44;5091948;28;41160;-79
2022/10/27 00:31:19;;;;;;;4.40;3.87;;;;;;;11.69;82.17;99724.03;5075276;28;39402;-79
2022/10/27 00:33:49;;;;;;;3.83;3.40;;;;;;;11.68;82.22;99723.19;5092013;28;40533;-81
2022/10/27 00:36:19;;;;;;;6.53;3.60;;;;;;;11.68;82.19;99717.88;5074539;28;41418;-79
2022/10/27 00:38:47;;;;;;;5.40;3.70;;;;;;;11.63;82.22;99717.25;5075268;28;42435;-80
2022/10/27 00:41:26;;;;;;;3.77;3.30;;;;;;;11.52;82.33;99701.91;5075086;28;38706;-79
2022/10/27 00:43:54;;;;;;;3.50;3.20;;;;;;;11.61;82.44;99727.13;5089149;28;41998;-80
2022/10/27 00:46:34;;;;;;;3.80;2.93;;;;;;;11.62;82.50;99730.63;5092035;28;43741;-80
2022/10/27 00:49:06;;;;;;;5.20;3.63;;;;;;;11.55;82.08;99727.41;5075251;28;42153;-80
2022/10/27 00:51:36;;;;;;;3.53;3.13;;;;;;;11.48;82.06;99723.38;5090631;28;39848;-82
2022/10/27 00:54:05;;;;;;;3.90;3.20;;;;;;;11.38;81.91;99716.81;5074657;28;41256;-79
2022/10/27 00:56:33;;;;;;;4.50;3.97;;;;;;;11.50;81.92;99738.25;5092028;28;42698;-81
2022/10/27 00:59:01;;;;;;;4.27;3.43;;;;;;;11.48;81.77;99734.84;5075024;28;41227;-79
2022/10/27 01:01:29;;;;;;;5.80;4.00;;;;;;;11.45;82.28;99744.75;5068469;28;38858;-80
2022/10/27 01:03:57;;;;;;;7.43;4.60;;;;;;;11.45;82.23;99745.63;5074736;28;40990;-81
2022/10/27 01:06:26;;;;;;;7.20;5.17;;;;;;;11.44;82.14;99746.56;5090715;28;43038;-80
2022/10/27 01:08:57;;;;;;;7.43;4.93;;;;;;;11.45;82.68;99752.72;5074788;28;42129;-80
2022/10/27 01:11:25;;;;;;;6.20;4.40;;;;;;;11.33;82.36;99734.78;5075137;28;38574;-80
2022/10/27 01:13:53;;;;;;;5.23;4.20;;;;;;;11.32;82.20;99735.72;5074320;28;40654;-80
2022/10/27 01:16:32;;;;;;;5.00;3.90;;;;;;;11.22;82.45;99722.09;5091524;28;42688;-80
2022/10/27 01:19:11;;;;;;;7.03;5.10;;;;;;;11.36;82.69;99745.25;5074708;28;41227;-80
2022/10/27 01:21:53;;;;;;;4.00;3.60;;;;;;;11.31;82.67;99748.13;5074610;28;40366;-79
2022/10/27 01:24:46;;;;;;;5.23;3.80;;;;;;;11.27;82.60;99753.66;5091424;28;40929;-80
2022/10/27 01:27:38;;;;;;;5.43;3.73;;;;;;;11.20;82.48;99747.81;5074081;28;41919;-80
2022/10/27 01:30:08;;;;;;;3.33;3.03;;;;;;;11.17;82.28;99753.25;5075450;28;42358;-80
2022/10/27 01:32:48;;;;;;;5.00;3.73;;;;;;;11.03;82.05;99724.78;5074246;28;38753;-79
2022/10/27 01:35:26;;;;;;;4.43;2.90;;;;;;;11.08;82.26;99741.34;5088377;28;42987;-80
2022/10/27 01:38:01;;;;;;;3.87;3.47;;;;;;;10.99;81.98;99730.34;5074386;28;41827;-79
2022/10/27 01:40:36;;;;;;;3.80;3.10;;;;;;;11.01;82.10;99734.63;5074212;28;42134;-79
2022/10/27 01:43:09;;;;;;;3.30;3.00;;;;;;;10.99;81.79;99749.75;5074335;28;40015;-80
2022/10/27 01:45:38;;;;;;;3.23;2.93;;;;;;;10.83;81.62;99729.38;5088476;28;41892;-79
2022/10/27 01:48:10;;;;;;;3.50;3.20;;;;;;;10.79;81.70;99718.06;5091046;28;41967;-80
2022/10/27 01:50:39;;;;;;;4.63;3.57;;;;;;;10.89;81.71;99732.56;5094957;28;42066;-79
2022/10/27 01:53:07;;;;;;;4.47;3.33;;;;;;;10.81;81.84;99721.50;5095980;28;39942;-79
2022/10/27 01:55:43;;;;;;;3.33;3.00;;;;;;;10.80;81.75;99730.41;5094501;28;41923;-79
2022/10/27 01:58:37;;;;;;;3.53;3.10;;;;;;;10.79;81.91;99726.03;5094779;28;43148;-80
2022/10/27 02:01:20;;;;;;;2.83;2.60;;;;;;;10.75;81.95;99729.78;5077340;28;41021;-79
2022/10/27 02:03:55;;;;;;;3.33;3.03;;;;;;;10.74;82.08;99733.34;5077531;28;40041;-80
2022/10/27 02:06:31;;;;;;;4.80;3.40;;;;;;;10.72;81.66;99735.22;5077398;28;40658;-80
2022/10/27 02:09:04;;;;;;;3.73;3.10;;;;;;;10.62;81.60;99715.41;5094444;28;44303;-79
2022/10/27 08:23:12;;;;;;;5.13;4.67;;;;;;;11.56;100.00;99861.78;5171677;27;21132;-85
2022/10/27 08:25:41;;;;;;;4.50;4.10;;;;;;;12.12;100.00;99844.75;5136387;27;38664;-85
2022/10/27 08:28:12;;;;;;;5.00;4.60;;;;;;;12.81;100.00;99865.78;5153644;27;41254;-85
2022/10/27 08:30:47;;;;;;;4.80;4.37;;;;;;;13.30;98.13;99863.91;5136290;27;41805;-86
2022/10/27 08:33:15;;;;;;;4.63;4.23;;;;;;;13.62;94.68;99859.34;5153386;27;42278;-85
2022/10/27 08:35:46;;;;;;;4.40;4.10;;;;;;;13.57;91.99;99808.22;5136156;27;39203;-85
2022/10/27 08:38:18;;;;;;;6.87;4.93;;;;;;;14.21;89.41;99852.25;5153172;27;42789;-86
2022/10/27 08:41:08;;;;;;;5.40;4.60;;;;;;;14.40;87.01;99847.53;5136137;27;43216;-85
2022/10/27 08:44:14;;;;;;;6.40;4.93;;;;;;;14.82;85.97;99861.78;5153294;27;41194;-86
2022/10/27 08:46:48;;;;;;;4.73;4.33;;;;;;;15.04;84.69;99864.75;5153244;27;41410;-85
2022/10/27 08:49:33;;;;;;;4.83;4.43;;;;;;;15.05;83.66;99845.13;5135921;27;41740;-85
2022/10/27 08:52:06;;;;;;;4.70;4.30;;;;;;;15.36;82.64;99882.19;5153577;27;42951;-86
2022/10/27 08:54:37;;;;;;;5.40;4.50;;;;;;;15.23;82.56;99849.25;5135779;27;42573;-85
2022/10/27 08:57:12;;;;;;;5.07;4.43;;;;;;;15.39;81.91;99849.97;5153753;27;38834;-85
2022/10/27 08:59:40;;;;;;;4.43;4.03;;;;;;;15.69;80.87;99864.94;5135674;27;40550;-86
2022/10/27 09:02:44;;;;;;;4.63;4.23;;;;;;;15.79;79.17;99847.31;5135218;27;41850;-84
2022/10/27 09:05:40;;;;;;;4.17;3.77;;;;;;;16.19;78.58;99860.63;5132799;27;42259;-84
2022/10/27 09:09:14;;;;;;;4.33;3.93;;;;;;;16.44;77.38;99839.22;5135213;27;38754;-84
2022/10/27 09:11:58;;;;;;;4.47;3.80;;;;;;;16.82;75.88;99858.72;5111642;27;40933;-84
2022/10/27 09:14:45;;;;;;;3.87;3.57;;;;;;;17.01;74.97;99854.72;5128499;27;41777;-85
2022/10/27 09:17:19;;;;;;;5.63;4.40;;;;;;;17.21;74.24;99844.25;5110880;27;42784;-84
2022/10/27 09:20:00;;;;;;;5.40;4.90;;;;;;;17.35;73.23;99845.91;5110914;27;40261;-90
2022/10/27 09:22:37;;;;;;;4.93;4.23;;;;;;;17.35;72.28;99834.34;5094315;27;40953;-83
2022/10/27 09:25:13;;;;;;;4.50;4.10;;;;;;;17.48;72.13;99848.53;5110952;27;41982;-81
2022/10/27 09:27:46;;;;;;;5.77;4.67;;;;;;;17.55;71.86;99845.28;5111235;27;42298;-87
2022/10/27 09:30:15;;;;;;;4.90;4.43;;;;;;;17.99;70.61;99840.19;5111490;27;39249;-87
2022/10/27 09:32:47;;;;;;;4.57;4.20;;;;;;;18.31;70.43;99850.13;5106461;28;41208;-86
2022/10/27 09:35:16;;;;;;;5.43;4.40;;;;;;;18.49;70.18;99836.22;5097934;28;42144;-83
2022/10/27 09:37:44;;;;;;;3.67;3.37;;;;;;;19.22;68.40;99851.78;5097095;28;41259;-85
2022/10/27 09:40:13;;;;;;;5.70;3.97;;;;;;;19.75;67.02;99843.81;5115077;28;40039;-84
2022/10/27 09:42:43;;;;;;;3.80;3.40;;;;;;;20.55;64.75;99849.41;5113733;28;41867;-83
2022/10/27 09:45:17;;;;;;;3.07;2.73;;;;;;;21.81;61.22;99870.25;5114367;28;43213;-84
2022/10/27 09:47:49;;;;;;;3.43;3.17;;;;;;;22.24;60.09;99880.63;5113490;28;42172;-86
2022/10/27 09:50:20;;;;;;;5.17;3.73;;;;;;;21.97;56.42;99889.41;5111906;28;39909;-86
2022/10/27 09:52:49;;;;;;;4.10;3.37;;;;;;;21.71;57.77;99872.97;5096645;28;40428;-84
2022/10/27 09:55:17;;;;;;;3.33;3.03;;;;;;;21.63;58.13;99864.75;5114181;28;44244;-86
2022/10/27 09:57:50;;;;;;;3.50;3.20;;;;;;;21.72;59.09;99874.66;5096876;28;41327;-83
2022/10/27 10:00:27;;;;;;;3.63;3.20;;;;;;;21.59;58.31;99846.28;5113970;28;41735;-85
2022/10/27 10:03:00;;;;;;;4.07;3.67;;;;;;;21.80;57.80;99877.50;5116332;28;42092;-82
2022/10/27 10:05:30;;;;;;;5.03;3.10;;;;;;;21.90;58.49;99871.22;5100083;28;41811;-84
2022/10/27 10:08:22;;;;;;;4.50;3.50;;;;;;;22.37;57.65;99870.34;5114279;28;43304;-82
2022/10/27 10:10:55;;;;;;;3.40;3.20;;;;;;;22.83;55.74;99876.75;5130379;27;40808;-88
2022/10/27 10:13:26;;;;;;;3.37;3.07;;;;;;;23.59;53.17;99880.03;5115561;28;41778;-83
2022/10/27 10:16:06;;;;;;;4.77;2.90;;;;;;;24.51;52.36;99877.75;5115021;28;42609;-81
2022/10/27 10:18:36;;;;;;;5.23;3.23;;;;;;;26.29;46.69;99871.16;5116038;28;41947;-91
2022/10/27 10:21:06;;;;;;;3.67;3.13;;;;;;;28.73;44.44;99895.06;5115416;28;40327;-86
2022/10/27 10:23:37;;;;;;;3.60;3.30;;;;;;;30.42;39.42;99920.19;5116797;28;42634;-82
2022/10/27 10:26:15;;;;;;;3.20;2.80;;;;;;;31.51;39.26;99919.47;5096733;28;43040;-90
2022/10/27 10:28:46;;;;;;;2.90;2.65;;;;;;;32.77;37.61;99925.97;5113796;28;41391;-89
2022/10/27 10:31:21;;;;;;;3.15;2.95;;;;;;;33.78;34.55;99940.91;5131711;27;40879;-85
2022/10/27 10:33:49;;;;;;;3.15;2.92;;;;;;;34.73;32.99;99943.63;5113194;28;42499;-87
2022/10/27 10:36:25;;;;;;;2.70;2.38;;;;;;;35.87;31.54;99940.19;5096889;28;41933;-88
2022/10/27 10:38:55;;;;;;;3.25;2.58;;;;;;;37.33;29.16;99956.88;5130350;27;43332;-88
2022/10/27 10:41:24;;;;;;;2.70;2.50;;;;;;;38.60;28.06;99942.75;5097497;28;39031;-84
2022/10/27 10:44:13;;;;;;;2.08;1.83;;;;;;;40.01;26.55;99954.13;5113070;27;42094;-80
2022/10/27 10:46:52;;;;;;;4.00;2.35;;;;;;;41.33;25.43;99951.56;5109389;28;43537;-78
2022/10/27 10:49:22;;;;;;;2.50;2.30;;;;;;;42.13;23.79;99951.06;5111038;28;41874;-79
2022/10/27 10:51:53;;;;;;;2.15;1.60;;;;;;;42.43;23.76;99943.84;5130423;27;39652;-80
2022/10/27 10:54:24;;;;;;;3.72;2.20;;;;;;;41.79;24.99;99930.38;5114202;28;41916;-83
2022/10/27 10:56:54;;;;;;;2.65;2.10;;;;;;;42.00;24.46;99923.75;5112760;28;42804;-81
2022/10/27 10:59:27;;;;;;;3.30;2.25;;;;;;;42.08;24.37;99925.16;5113960;28;42049;-77
2022/10/27 11:02:05;;;;;;;4.90;2.38;;;;;;;41.31;24.93;99921.25;5110126;28;40206;-80
2022/10/27 11:04:40;;;;;;;3.50;2.35;;;;;;;39.94;26.39;99902.72;5109888;28;41719;-79
2022/10/27 11:07:20;;;;;;;3.13;2.58;;;;;;;38.74;27.57;99897.00;5112313;28;41809;-83
2022/10/27 11:10:10;;;;;;;2.53;2.13;;;;;;;39.32;26.46;99894.78;5109024;28;42780;-80
2022/10/27 11:12:41;;;;;;;2.92;2.40;;;;;;;40.56;25.32;99892.69;5113533;28;40185;-81
2022/10/27 11:15:19;;;;;;;2.72;2.03;;;;;;;41.82;24.15;99910.31;5112378;28;42061;-81
2022/10/27 11:17:50;;;;;;;2.92;2.70;;;;;;;42.54;23.42;99900.94;5110740;28;42814;-82
2022/10/27 11:20:21;;;;;;;2.42;2.22;;;;;;;42.79;22.23;99909.28;5126485;27;43084;-84
2022/10/27 11:22:51;;;;;;;2.55;2.28;;;;;;;42.47;22.87;99895.66;5112302;28;38913;-83
2022/10/27 11:25:22;;;;;;;2.58;2.38;;;;;;;42.17;23.14;99890.91;5112172;28;41666;-84
2022/10/27 11:28:00;;;;;;;2.50;2.20;;;;;;;41.71;23.69;99869.69;5110668;28;42543;-80
2022/10/27 11:30:29;;;;;;;3.80;2.38;;;;;;;41.64;24.39;99869.13;5112566;28;42151;-82
2022/10/27 11:37:31;;;;;;;5.65;2.88;;;;;;;43.04;22.33;99872.13;5113155;28;42203;-79
2022/10/27 11:40:05;;;;;;;2.70;2.35;;;;;;;43.42;22.41;99873.38;5112097;28;41887;-81
2022/10/27 11:42:38;;;;;;;2.70;2.50;;;;;;;43.86;22.44;99862.25;5129373;27;42692;-82
2022/10/27 11:45:15;;;;;;;3.53;2.72;;;;;;;44.63;21.25;99862.47;5111874;28;40134;-80
2022/10/27 11:47:49;;;;;;;4.85;2.70;;;;;;;45.32;20.61;99861.13;5111505;28;42199;-84
2022/10/27 11:50:24;;;;;;;3.42;2.33;;;;;;;45.78;20.19;99853.72;5111913;28;42713;-80
2022/10/27 11:52:54;;;;;;;5.45;2.25;;;;;;;46.31;19.41;99858.22;5110587;28;43071;-84
2022/10/27 11:55:25;;;;;;;2.35;2.15;;;;;;;46.74;19.72;99853.25;5112138;27;39091;-79
2022/10/27 11:58:02;;;;;;;2.20;2.08;;;;;;;46.99;18.84;99855.50;5094594;28;41850;-77
2022/10/27 12:00:35;;;;;;;3.00;2.38;;;;;;;47.23;19.21;99846.09;5125852;27;43854;-77
2022/10/27 12:03:27;;;;;;;3.33;2.78;;;;;;;47.57;18.65;99849.25;5110372;28;42194;-82
2022/10/27 12:05:59;;;;;;;3.63;2.80;;;;;;;47.61;18.68;99839.03;5081208;28;39738;-78
2022/10/27 12:08:37;;;;;;;3.47;2.65;;;;;;;47.74;18.54;99837.34;5111476;28;40655;-78
2022/10/27 12:11:21;;;;;;;3.00;2.47;;;;;;;47.42;18.55;99842.00;5094793;28;43080;-81
2022/10/27 12:13:56;;;;;;;2.67;2.47;;;;;;;45.86;19.49;99832.63;5128371;27;41912;-85
2022/10/27 12:16:29;;;;;;;2.92;2.30;;;;;;;45.08;20.60;99822.81;5094937;28;38858;-83
2022/10/27 12:19:05;;;;;;;2.97;2.47;;;;;;;44.51;20.83;99818.16;5112499;28;41610;-76
2022/10/27 12:21:38;;;;;;;3.63;1.98;;;;;;;44.86;21.10;99808.56;5111437;28;41257;-78
2022/10/27 12:24:11;;;;;;;3.15;2.30;;;;;;;45.15;20.50;99804.84;5108548;28;42155;-81
2022/10/27 12:26:43;;;;;;;2.72;2.38;;;;;;;45.17;19.86;99817.38;5109638;28;39936;-79
2022/10/27 12:29:12;;;;;;;5.15;2.63;;;;;;;45.14;20.50;99803.16;5111316;28;40703;-80
2022/10/27 12:31:47;;;;;;;3.10;2.40;;;;;;;45.05;20.75;99800.19;5128355;27;42792;-85
2022/10/27 12:34:21;;;;;;;2.45;2.20;;;;;;;45.02;21.00;99787.63;5111302;28;41963;-79
2022/10/27 12:36:55;;;;;;;4.38;2.30;;;;;;;44.55;22.02;99782.06;5111089;28;38921;-79
2022/10/27 12:39:31;;;;;;;2.83;2.08;;;;;;;43.78;22.13;99776.34;5094073;28;41760;-82
2022/10/27 12:42:09;;;;;;;3.42;2.33;;;;;;;41.70;24.24;99743.63;5109456;28;44124;-80
2022/10/27 12:44:49;;;;;;;2.95;2.30;;;;;;;39.89;26.19;99741.75;5108350;28;42006;-79
2022/10/27 12:47:43;;;;;;;4.97;2.55;;;;;;;38.34;27.69;99735.78;5110882;28;39662;-83
2022/10/27 12:50:37;;;;;;;3.95;2.80;;;;;;;37.26;29.14;99713.00;5111248;28;42836;-79
2022/10/27 12:53:18;;;;;;;3.67;2.63;;;;;;;36.55;30.02;99700.53;5128092;27;42767;-77
2022/10/27 12:55:51;;;;;;;2.70;2.50;;;;;;;36.65;29.85;99700.72;5111304;28;40946;-78
2022/10/27 12:58:30;;;;;;;2.97;2.65;;;;;;;37.31;29.22;99699.28;5111405;28;39878;-81
2022/10/27 13:01:10;;;;;;;2.67;2.03;;;;;;;37.45;28.97;99704.50;5110814;28;40745;-82
2022/10/27 13:04:04;;;;;;;3.67;2.90;;;;;;;36.02;30.21;99689.66;5110520;28;43233;-79
2022/10/27 13:06:52;;;;;;;4.13;2.50;;;;;;;34.78;31.99;99677.63;5110886;28;40675;-80
2022/10/27 13:09:53;;;;;;;5.37;3.03;;;;;;;33.57;33.42;99658.22;5113641;28;40992;-80
2022/10/27 13:12:43;;;;;;;3.37;2.57;;;;;;;32.59;35.16;99646.81;5097236;28;41732;-78
2022/10/27 13:15:39;;;;;;;3.47;3.13;;;;;;;31.75;36.65;99642.25;5129487;27;42957;-77
2022/10/27 13:18:20;;;;;;;3.97;2.67;;;;;;;31.11;37.22;99614.66;5097142;28;42063;-80
2022/10/27 13:20:57;;;;;;;3.37;2.33;;;;;;;31.10;37.96;99621.19;5114859;28;39133;-81
2022/10/27 13:23:35;;;;;;;4.93;3.30;;;;;;;31.01;38.23;99612.31;5114954;28;42638;-80
2022/10/27 13:26:13;;;;;;;3.93;2.53;;;;;;;30.77;38.74;99609.34;5114428;28;42904;-78
2022/10/27 13:28:47;;;;;;;4.07;2.60;;;;;;;31.82;38.14;99613.97;5113929;28;41965;-81
2022/10/27 13:31:21;;;;;;;6.63;3.23;;;;;;;33.17;36.24;99625.56;5096896;28;39175;-79
2022/10/27 13:34:19;;;;;;;6.37;2.70;;;;;;;34.47;35.08;99637.41;5114747;28;41566;-79
2022/10/27 13:36:47;;;;;;;4.20;2.70;;;;;;;35.30;33.54;99639.41;5114904;28;42480;-82
2022/10/27 13:39:44;;;;;;;5.80;2.73;;;;;;;36.08;32.59;99644.59;5115214;28;42239;-79
2022/10/27 13:42:17;;;;;;;7.53;2.93;;;;;;;36.51;30.26;99663.44;5113895;28;38858;-81
2022/10/27 13:44:46;;;;;;;8.10;2.50;;;;;;;36.89;29.82;99665.59;5114282;28;40782;-78
2022/10/27 13:47:18;;;;;;;8.10;2.97;;;;;;;37.30;29.71;99669.97;5113652;28;41858;-78
2022/10/27 13:49:54;;;;;;;3.87;2.30;;;;;;;37.50;28.63;99661.19;5128137;27;43127;-82
2022/10/27 13:52:23;;;;;;;6.07;2.50;;;;;;;37.58;28.13;99666.31;5131025;27;39985;-81
2022/10/27 13:54:55;;;;;;;5.85;3.17;;;;;;;37.71;27.60;99678.97;5113867;28;42672;-82
2022/10/27 13:57:54;;;;;;;3.63;2.33;;;;;;;37.61;27.43;99681.53;5113327;28;41800;-78
2022/10/27 14:00:24;;;;;;;5.67;2.40;;;;;;;37.44;27.35;99666.88;5113552;28;41175;-79
2022/10/27 14:03:15;;;;;;;5.80;2.57;;;;;;;37.46;27.21;99690.44;5130614;27;40360;-80
2022/10/27 14:05:45;;;;;;;3.37;2.27;;;;;;;37.38;27.22;99682.53;5096608;28;40900;-81
2022/10/27 14:08:23;;;;;;;5.37;2.97;;;;;;;37.22;26.91;99688.88;5113753;28;42838;-79
2022/10/27 14:10:53;;;;;;;5.43;2.17;;;;;;;37.03;27.19;99682.72;5128998;27;42379;-77
2022/10/27 14:13:23;;;;;;;5.67;2.47;;;;;;;36.04;28.16;99670.13;5113308;28;40409;-79
2022/10/27 14:15:57;;;;;;;3.13;2.30;;;;;;;34.70;28.79;99668.84;5113633;28;42040;-81
2022/10/27 14:18:31;;;;;;;3.80;2.00;;;;;;;33.48;30.28;99671.41;5096205;28;42092;-79
2022/10/27 14:21:10;;;;;;;2.63;1.77;;;;;;;32.38;32.12;99647.16;5127224;27;42521;-79
2022/10/27 14:23:38;;;;;;;4.10;2.20;;;;;;;31.60;33.62;99643.50;5095742;28;40005;-80
2022/10/27 14:26:23;;;;;;;5.20;1.83;;;;;;;30.96;34.77;99625.75;5112640;28;40836;-81
2022/10/27 14:28:51;;;;;;;3.63;1.90;;;;;;;30.35;36.00;99623.06;5113792;28;43714;-82
2022/10/27 14:31:20;;;;;;;5.80;2.93;;;;;;;29.74;36.98;99607.59;5113074;28;42292;-81
2022/10/27 14:33:48;;;;;;;7.50;2.40;;;;;;;29.39;38.21;99618.50;5112444;28;40015;-80
2022/10/27 14:36:20;;;;;;;3.63;2.33;;;;;;;28.95;38.19;99625.00;5114071;27;42041;-80
2022/10/27 14:38:50;;;;;;;7.77;2.57;;;;;;;28.63;38.84;99614.59;5110911;27;43805;-80
2022/10/27 14:41:19;;;;;;;7.93;2.30;;;;;;;28.37;39.91;99606.94;5118751;27;40569;-78
2022/10/27 14:43:51;;;;;;;5.93;2.47;;;;;;;27.97;40.30;99597.41;5109252;28;40046;-81
2022/10/27 14:46:22;;;;;;;3.80;1.90;;;;;;;27.58;40.95;99588.69;5106273;28;42660;-78
2022/10/27 14:48:58;;;;;;;4.60;2.20;;;;;;;27.28;41.41;99596.78;5108033;28;43706;-78
2022/10/27 14:51:27;;;;;;;4.77;2.23;;;;;;;26.84;41.85;99573.00;5094354;28;40977;-80
2022/10/27 14:53:56;;;;;;;3.10;2.17;;;;;;;26.58;42.43;99577.16;5081683;28;39579;-79
2022/10/27 14:56:25;;;;;;;5.77;2.43;;;;;;;26.23;43.12;99564.94;5091878;28;44416;-79
2022/10/27 14:58:57;;;;;;;6.13;2.20;;;;;;;26.01;43.86;99574.72;5091815;28;42579;-79
2022/10/27 15:01:29;;;;;;;3.40;2.03;;;;;;;25.69;44.22;99567.56;5106252;28;42342;-78
2022/10/27 15:03:58;;;;;;;4.97;2.30;;;;;;;25.52;44.69;99576.75;5091748;28;40584;-79
2022/10/27 15:06:28;;;;;;;5.17;2.10;;;;;;;25.28;45.17;99581.22;5108047;28;41872;-78
2022/10/27 15:08:57;;;;;;;6.27;2.80;;;;;;;25.07;45.52;99580.91;5112115;28;42428;-80
2022/10/27 15:11:26;;;;;;;4.50;1.90;;;;;;;24.80;46.26;99554.97;5094512;28;41500;-78
2022/10/27 15:13:55;;;;;;;2.63;1.93;;;;;;;24.66;47.14;99553.78;5112078;28;40054;-78
2022/10/27 15:16:28;;;;;;;3.97;2.63;;;;;;;24.49;47.48;99551.22;5113199;28;42841;-77
2022/10/27 15:18:56;;;;;;;6.20;2.40;;;;;;;24.30;48.43;99549.69;5111271;28;41737;-79
2022/10/27 15:21:26;;;;;;;6.47;2.63;;;;;;;24.12;48.78;99540.78;5105876;28;42260;-79
2022/10/27 15:24:01;;;;;;;5.83;2.80;;;;;;;23.90;49.12;99548.53;5105868;28;40427;-82
2022/10/27 15:26:29;;;;;;;3.83;2.57;;;;;;;23.75;49.83;99547.44;5089512;28;42071;-77
2022/10/27 15:29:02;;;;;;;5.60;2.30;;;;;;;23.54;49.89;99547.03;5109309;27;42697;-79
2022/10/27 15:31:39;;;;;;;3.83;2.33;;;;;;;23.45;50.37;99558.78;5102914;28;43800;-78
2022/10/27 15:34:27;;;;;;;7.87;2.43;;;;;;;23.29;50.88;99560.38;5109377;28;40913;-80
2022/10/27 15:37:13;;;;;;;5.33;2.90;;;;;;;23.11;51.46;99561.44;5106347;28;41569;-79
2022/10/27 15:39:41;;;;;;;5.60;2.33;;;;;;;22.94;51.14;99565.88;5105653;28;42614;-78
2022/10/27 15:42:18;;;;;;;5.03;2.43;;;;;;;22.77;52.00;99559.47;5112775;28;43102;-78
2022/10/27 15:44:48;;;;;;;4.03;2.50;;;;;;;22.60;52.53;99556.78;5100682;28;40135;-80
2022/10/27 15:47:40;;;;;;;3.60;3.00;;;;;;;22.43;53.41;99556.63;5093055;28;42431;-79
2022/10/27 15:50:24;;;;;;;4.00;2.50;;;;;;;22.26;53.74;99554.75;5088264;28;43749;-78
2022/10/27 15:53:05;;;;;;;5.30;2.70;;;;;;;22.10;54.26;99549.22;5108880;28;43149;-78
2022/10/27 15:55:37;;;;;;;6.00;2.50;;;;;;;21.93;54.25;99552.69;5109763;28;39841;-80
2022/10/27 15:58:31;;;;;;;4.73;2.43;;;;;;;21.79;54.58;99557.59;5110481;28;42567;-80
2022/10/27 16:01:09;;;;;;;3.60;2.03;;;;;;;21.63;55.26;99549.31;5111377;28;44349;-79
2022/10/27 16:03:40;;;;;;;6.40;3.70;;;;;;;21.45;55.64;99549.22;5093828;28;41927;-76
2022/10/27 16:06:27;;;;;;;2.43;2.00;;;;;;;21.31;55.92;99556.94;5092052;28;39667;-81
2022/10/27 16:08:56;;;;;;;5.70;2.57;;;;;;;21.17;55.91;99555.53;5105389;28;40990;-77
2022/10/27 16:11:25;;;;;;;4.13;2.70;;;;;;;21.04;56.87;99550.47;5093026;28;42125;-77
2022/10/27 16:13:56;;;;;;;5.07;2.63;;;;;;;20.90;57.45;99556.28;5107829;28;42653;-78
2022/10/27 16:16:26;;;;;;;5.30;2.70;;;;;;;20.79;57.27;99561.84;5108140;28;39953;-79
2022/10/27 16:18:55;;;;;;;4.43;2.30;;;;;;;20.68;57.27;99562.84;5093807;27;39867;-77
2022/10/27 16:21:26;;;;;;;4.70;2.80;;;;;;;20.56;58.15;99560.44;5091239;28;41803;-79
2022/10/27 16:23:55;;;;;;;4.43;2.17;;;;;;;20.48;59.01;99568.38;5109919;28;41381;-77
2022/10/27 16:26:26;;;;;;;4.97;3.07;;;;;;;20.38;58.68;99558.47;5112488;28;40622;-80
2022/10/27 16:28:56;;;;;;;6.53;2.63;;;;;;;20.29;58.71;99570.03;5111254;28;42232;-78
2022/10/27 16:31:27;;;;;;;7.23;3.40;;;;;;;20.21;59.11;99575.25;5111054;28;41898;-77
2022/10/27 16:33:54;;;;;;;5.80;3.23;;;;;;;20.11;58.73;99582.47;5093785;28;40602;-77
2022/10/27 16:36:22;;;;;;;6.00;3.20;;;;;;;20.01;58.95;99576.22;5093820;28;40743;-78
2022/10/27 16:38:50;;;;;;;3.43;3.13;;;;;;;19.89;59.40;99571.94;5093513;28;41198;-79
2022/10/27 16:41:25;;;;;;;4.43;3.70;;;;;;;19.78;60.08;99572.06;5112320;28;43653;-80
2022/10/27 16:43:54;;;;;;;5.47;3.73;;;;;;;19.64;60.82;99571.44;5112927;27;42458;-77
2022/10/27 16:47:00;;;;;;;4.30;3.23;;;;;;;19.52;61.06;99575.22;5114944;28;40821;-80
2022/10/27 16:49:27;;;;;;;4.23;3.20;;;;;;;19.37;60.57;99577.38;5114755;28;42547;-78
2022/10/27 16:51:55;;;;;;;5.03;2.90;;;;;;;19.30;60.57;99588.75;5115435;28;42520;-78
2022/10/27 16:54:23;;;;;;;3.67;2.67;;;;;;;19.17;60.25;99580.06;5115637;28;42031;-80
2022/10/27 16:56:51;;;;;;;3.83;2.57;;;;;;;19.11;60.15;99596.72;5114244;28;38554;-77
2022/10/27 16:59:18;;;;;;;2.43;2.17;;;;;;;18.99;60.59;99594.09;5115682;28;42488;-78
2022/10/27 17:01:48;;;;;;;6.60;2.53;;;;;;;18.85;60.47;99580.16;5115145;28;43768;-79
2022/10/27 17:04:18;;;;;;;4.47;2.90;;;;;;;18.81;60.69;99590.28;5097063;28;41071;-80
2022/10/27 17:06:45;;;;;;;4.40;2.60;;;;;;;18.73;60.98;99598.16;5114186;28;39919;-76
2022/10/27 17:09:14;;;;;;;5.20;3.97;;;;;;;18.63;61.23;99591.84;5131292;27;41783;-77
2022/10/27 17:11:42;;;;;;;6.23;3.37;;;;;;;18.57;61.57;99590.50;5113486;28;44454;-78
2022/10/27 17:14:10;;;;;;;4.50;3.60;;;;;;;18.49;61.79;99590.31;5096828;28;42191;-79
2022/10/27 17:16:38;;;;;;;6.63;4.37;;;;;;;18.43;62.06;99588.13;5113721;28;39011;-77
2022/10/27 17:19:05;;;;;;;7.03;4.40;;;;;;;18.36;61.94;99583.41;5113974;28;42685;-80
2022/10/27 17:21:35;;;;;;;7.87;5.40;;;;;;;18.27;62.13;99580.50;5113910;28;42764;-80
2022/10/27 17:24:03;;;;;;;10.87;6.90;;;;;;;18.23;62.13;99584.41;5131115;27;42961;-78
2022/10/27 17:26:31;;;;;;;9.00;5.70;;;;;;;18.16;62.06;99588.59;5115269;28;39996;-79
2022/10/27 17:28:59;;;;;;;12.30;7.17;;;;;;;18.10;62.38;99588.22;5096823;28;41927;-78
2022/10/27 17:31:27;;;;;;;11.67;6.07;;;;;;;18.04;62.72;99588.75;5114234;28;42985;-77
2022/10/27 17:36:39;;;;;;;11.33;6.83;;;;;;;17.88;63.46;99589.13;5130503;27;40399;-77
2022/10/27 17:39:07;;;;;;;13.60;7.00;;;;;;;17.80;64.08;99588.91;5096421;28;41686;-78
2022/10/27 17:41:34;;;;;;;11.43;6.27;;;;;;;17.75;64.03;99608.00;5113603;28;42678;-76
2022/10/27 17:44:02;;;;;;;9.07;6.40;;;;;;;17.70;64.02;99609.34;5113387;28;41933;-80
2022/10/27 17:46:30;;;;;;;9.37;6.10;;;;;;;17.64;63.76;99613.38;5113912;28;40327;-76
2022/10/27 17:48:59;;;;;;;7.77;5.10;;;;;;;17.55;63.81;99614.94;5113414;28;42858;-75
2022/10/27 17:51:29;;;;;;;9.27;6.10;;;;;;;17.48;64.18;99613.69;5096188;28;44756;-77
2022/10/27 17:53:59;;;;;;;7.67;4.87;;;;;;;17.38;64.19;99602.00;5112822;28;41363;-77
2022/10/27 17:56:31;;;;;;;8.57;6.13;;;;;;;17.36;64.52;99603.09;5113245;28;39027;-78
2022/10/27 17:58:58;;;;;;;7.33;5.27;;;;;;;17.29;64.48;99608.09;5130363;27;41679;-79
2022/10/27 18:01:27;;;;;;;7.80;5.67;;;;;;;17.24;64.95;99607.59;5095352;28;42476;-77
2022/10/27 18:03:57;;;;;;;7.53;4.60;;;;;;;17.20;65.04;99619.50;5112909;28;42517;-78
2022/10/27 18:06:26;;;;;;;9.67;5.80;;;;;;;17.13;65.07;99602.22;5113115;28;38962;-79
2022/10/27 18:08:57;;;;;;;7.43;5.03;;;;;;;17.09;65.46;99606.94;5114155;28;42519;-80
2022/10/27 18:11:28;;;;;;;5.83;4.37;;;;;;;17.04;65.96;99609.16;5114162;28;42198;-79
2022/10/27 18:13:59;;;;;;;6.67;4.37;;;;;;;16.97;65.96;99612.41;5112865;28;44130;-80
2022/10/27 18:16:29;;;;;;;5.23;3.73;;;;;;;16.97;65.82;99615.06;5096105;28;38915;-80
2022/10/27 18:18:59;;;;;;;4.43;3.33;;;;;;;16.94;65.71;99620.69;5114329;28;42167;-78
2022/10/27 18:21:27;;;;;;;5.00;3.60;;;;;;;16.82;65.87;99601.88;5114151;28;42704;-77
2022/10/27 18:23:58;;;;;;;4.50;3.20;;;;;;;16.79;66.25;99604.81;5095653;28;42988;-77
2022/10/27 18:26:28;;;;;;;5.73;4.53;;;;;;;16.84;66.30;99613.34;5113025;28;40824;-77